createdAt,value
2019-06-27T00:02:19.022Z,20.57
2019-06-27T00:04:46.467Z,20.70
2019-06-27T00:07:13.835Z,20.05
2019-06-27T00:09:41.267Z,20.35
2019-06-27T00:12:09.021Z,18.57
2019-06-27T00:14:37.132Z,22.13
2019-06-27T00:17:04.511Z,19.25
2019-06-27T00:19:32.304Z,23.02
2019-06-27T00:22:00.143Z,19.55
2019-06-27T00:24:27.672Z,24.80
2019-06-27T00:26:57.560Z,20.08
2019-06-27T00:29:24.982Z,20.62
2019-06-27T00:31:52.408Z,19.17
2019-06-27T00:34:19.915Z,19.42
2019-06-27T00:36:47.386Z,20.70
2019-06-27T00:39:14.835Z,21.50
2019-06-27T00:41:42.323Z,20.45
2019-06-27T00:44:10.241Z,21.40
2019-06-27T00:46:37.898Z,20.10
2019-06-27T00:49:05.412Z,22.20
2019-06-27T00:51:33.222Z,20.70
2019-06-27T00:54:00.599Z,21.60
2019-06-27T00:56:28.107Z,25.00
2019-06-27T00:58:55.609Z,22.32
2019-06-27T01:01:23.006Z,28.85
2019-06-27T01:03:50.759Z,25.92
2019-06-27T01:06:18.512Z,22.35
2019-06-27T01:08:46.312Z,23.10
2019-06-27T01:11:14.160Z,20.05
2019-06-27T01:13:41.686Z,22.58
2019-06-27T01:16:09.228Z,22.48
2019-06-27T01:18:36.730Z,23.35
2019-06-27T01:21:04.294Z,24.87
2019-06-27T01:23:32.260Z,23.87
2019-06-27T01:25:59.747Z,25.52
2019-06-27T01:28:27.763Z,24.20
2019-06-27T01:30:55.235Z,24.12
2019-06-27T01:33:22.724Z,23.87
2019-06-27T01:35:50.522Z,23.45
2019-06-27T01:38:17.926Z,24.32
2019-06-27T01:40:45.358Z,24.70
2019-06-27T01:43:13.142Z,23.25
2019-06-27T01:45:45.730Z,22.13
2019-06-27T01:48:13.602Z,21.85
2019-06-27T01:50:41.125Z,22.37
2019-06-27T01:53:08.556Z,22.82
2019-06-27T01:55:36.004Z,21.93
2019-06-27T01:58:03.513Z,22.17
2019-06-27T02:00:30.859Z,23.00
2019-06-27T02:02:58.623Z,24.10
2019-06-27T02:05:26.390Z,23.75
2019-06-27T02:07:54.164Z,23.52
2019-06-27T02:10:22.430Z,22.45
2019-06-27T02:12:50.233Z,21.70
2019-06-27T02:15:17.941Z,21.68
2019-06-27T02:17:45.647Z,22.13
2019-06-27T02:20:13.857Z,22.60
2019-06-27T02:22:41.283Z,22.17
2019-06-27T02:25:11.127Z,21.75
2019-06-27T02:27:38.630Z,22.60
2019-06-27T02:30:07.101Z,22.50
2019-06-27T02:32:34.710Z,23.80
2019-06-27T02:35:02.363Z,22.60
2019-06-27T02:37:29.879Z,22.87
2019-06-27T02:39:57.400Z,22.20
2019-06-27T02:42:25.018Z,21.77
2019-06-27T02:44:52.549Z,22.17
2019-06-27T02:47:20.153Z,22.07
2019-06-27T02:49:50.230Z,21.35
2019-06-27T02:52:17.492Z,21.23
2019-06-27T02:54:45.655Z,22.70
2019-06-27T02:57:13.772Z,25.27
2019-06-27T02:59:41.458Z,23.00
2019-06-27T03:02:09.213Z,22.95
2019-06-27T03:04:36.747Z,23.98
2019-06-27T03:07:04.233Z,21.10
2019-06-27T03:09:31.719Z,22.60
2019-06-27T03:12:00.509Z,22.20
2019-06-27T03:14:28.319Z,23.22
2019-06-27T03:16:56.057Z,22.48
2019-06-27T03:19:23.570Z,23.65
2019-06-27T03:21:51.049Z,22.93
2019-06-27T03:24:18.592Z,21.48
2019-06-27T03:26:46.034Z,20.95
2019-06-27T03:29:13.937Z,21.62
2019-06-27T03:31:41.738Z,21.93
2019-06-27T03:34:09.665Z,21.82
2019-06-27T03:36:37.221Z,21.37
2019-06-27T03:39:05.487Z,20.88
2019-06-27T03:41:33.048Z,21.75
2019-06-27T03:44:00.539Z,21.90
2019-06-27T03:46:28.283Z,22.93
2019-06-27T03:48:55.669Z,20.43
2019-06-27T03:51:23.408Z,22.85
2019-06-27T03:53:50.938Z,22.62
2019-06-27T03:56:18.721Z,22.10
2019-06-27T03:58:46.239Z,22.15
2019-06-27T04:01:13.983Z,22.20
2019-06-27T04:03:42.938Z,24.20
2019-06-27T04:06:10.778Z,22.77
2019-06-27T04:08:38.296Z,23.00
2019-06-27T04:11:05.843Z,21.80
2019-06-27T04:13:33.394Z,21.70
2019-06-27T04:16:01.074Z,23.87
2019-06-27T04:18:28.546Z,23.05
2019-06-27T04:20:56.032Z,22.17
2019-06-27T04:23:23.584Z,22.80
2019-06-27T04:25:51.432Z,22.95
2019-06-27T04:28:19.212Z,22.35
2019-06-27T04:30:46.794Z,24.65
2019-06-27T04:33:14.312Z,22.05
2019-06-27T04:35:41.833Z,23.45
2019-06-27T04:38:09.405Z,22.65
2019-06-27T04:40:37.109Z,22.85
2019-06-27T04:43:06.014Z,24.02
2019-06-27T04:45:33.812Z,21.97
2019-06-27T04:48:01.615Z,22.35
2019-06-27T04:50:29.048Z,22.77
2019-06-27T04:52:56.604Z,22.07
2019-06-27T04:55:24.118Z,22.95
2019-06-27T04:57:51.568Z,22.85
2019-06-27T05:00:26.549Z,23.07
2019-06-27T05:02:54.027Z,22.85
2019-06-27T05:05:21.597Z,22.95
2019-06-27T05:07:49.166Z,22.02
2019-06-27T05:10:18.059Z,21.37
2019-06-27T05:12:45.611Z,23.05
2019-06-27T05:15:13.123Z,22.27
2019-06-27T05:17:40.531Z,21.33
2019-06-27T05:20:08.521Z,17.77
2019-06-27T05:22:35.986Z,17.07
2019-06-27T05:25:03.641Z,15.48
2019-06-27T05:27:31.198Z,15.32
2019-06-27T05:30:08.839Z,15.05
2019-06-27T05:32:28.317Z,15.13
2019-06-27T05:34:55.861Z,13.18
2019-06-27T05:37:23.803Z,13.58
2019-06-27T05:39:51.815Z,14.33
2019-06-27T05:42:19.296Z,14.30
2019-06-27T05:44:46.833Z,13.43
2019-06-27T05:47:14.318Z,12.55
2019-06-27T05:49:41.825Z,13.48
2019-06-27T05:52:11.959Z,13.38
2019-06-27T05:54:39.761Z,12.95
2019-06-27T05:57:07.368Z,13.78
2019-06-27T05:59:34.815Z,14.03
2019-06-27T06:02:02.266Z,12.13
2019-06-27T06:04:29.787Z,13.78
2019-06-27T06:06:57.557Z,11.28
2019-06-27T06:09:25.042Z,11.45
2019-06-27T06:11:52.547Z,12.35
2019-06-27T06:14:20.000Z,11.38
2019-06-27T06:16:47.353Z,11.22
2019-06-27T06:19:14.904Z,12.25
2019-06-27T06:21:42.351Z,10.88
2019-06-27T06:24:09.887Z,10.18
2019-06-27T06:26:37.275Z,11.60
2019-06-27T06:29:04.942Z,11.65
2019-06-27T06:31:32.367Z,10.13
2019-06-27T06:33:59.864Z,11.43
2019-06-27T06:36:27.371Z,12.55
2019-06-27T06:38:55.130Z,10.82
2019-06-27T06:41:22.655Z,9.98
2019-06-27T06:43:50.310Z,11.33
2019-06-27T06:46:18.101Z,11.05
2019-06-27T06:48:45.473Z,9.20
2019-06-27T06:51:13.431Z,11.78
2019-06-27T06:53:40.933Z,8.88
2019-06-27T06:56:08.403Z,12.30
2019-06-27T06:58:35.855Z,10.65
2019-06-27T07:01:03.338Z,9.30
2019-06-27T07:03:31.225Z,9.45
2019-06-27T07:05:58.722Z,7.90
2019-06-27T07:08:26.186Z,8.98
2019-06-27T07:10:53.657Z,9.55
2019-06-27T07:13:21.045Z,9.95
2019-06-27T07:15:48.437Z,8.88
2019-06-27T07:18:15.960Z,7.92
2019-06-27T07:20:43.360Z,8.63
2019-06-27T07:23:10.829Z,10.55
2019-06-27T07:25:38.358Z,8.93
2019-06-27T07:28:05.832Z,9.85
2019-06-27T07:30:33.675Z,8.60
2019-06-27T07:33:01.079Z,10.23
2019-06-27T07:35:28.493Z,11.88
2019-06-27T07:37:55.878Z,9.98
2019-06-27T07:40:23.368Z,8.48
2019-06-27T07:42:50.747Z,10.30
2019-06-27T07:45:18.280Z,10.25
2019-06-27T07:47:45.754Z,11.25
2019-06-27T07:50:13.869Z,10.40
2019-06-27T07:52:41.374Z,10.60
2019-06-27T07:55:08.909Z,12.30
2019-06-27T07:57:36.863Z,11.55
2019-06-27T08:00:05.236Z,9.45
2019-06-27T08:02:32.695Z,10.38
2019-06-27T08:05:00.157Z,9.88
2019-06-27T08:07:27.925Z,11.48
2019-06-27T08:09:55.476Z,8.93
2019-06-27T08:12:23.106Z,9.68
2019-06-27T08:14:50.666Z,11.33
2019-06-27T08:17:18.158Z,9.73
2019-06-27T08:19:45.725Z,10.35
2019-06-27T08:22:13.677Z,10.13
2019-06-27T08:24:41.081Z,11.10
2019-06-27T08:27:09.009Z,9.28
2019-06-27T08:29:37.056Z,10.23
2019-06-27T08:32:04.921Z,9.70
2019-06-27T08:34:32.546Z,9.05
2019-06-27T08:36:59.981Z,8.93
2019-06-27T08:39:27.725Z,9.25
2019-06-27T08:41:55.146Z,8.90
2019-06-27T08:44:22.470Z,10.03
2019-06-27T08:46:49.830Z,9.93
2019-06-27T08:49:17.635Z,7.92
2019-06-27T08:51:45.130Z,8.53
2019-06-27T08:54:12.514Z,8.23
2019-06-27T08:56:40.672Z,7.10
2019-06-27T08:59:08.205Z,7.87
2019-06-27T09:01:35.740Z,8.70
2019-06-27T09:04:03.235Z,8.40
2019-06-27T09:06:30.663Z,7.50
2019-06-27T09:08:58.180Z,6.92
2019-06-27T09:11:25.762Z,8.08
2019-06-27T09:13:53.536Z,7.80
2019-06-27T09:16:21.037Z,6.97
2019-06-27T09:18:48.450Z,7.25
2019-06-27T09:21:16.198Z,10.58
2019-06-27T09:23:43.761Z,7.08
2019-06-27T09:26:11.203Z,9.35
2019-06-27T09:28:38.977Z,7.37
2019-06-27T09:31:06.423Z,6.83
2019-06-27T09:33:34.342Z,6.58
2019-06-27T09:36:01.856Z,7.17
2019-06-27T09:38:29.637Z,8.33
2019-06-27T09:40:57.427Z,7.35
2019-06-27T09:43:24.933Z,6.83
2019-06-27T09:45:52.441Z,6.50
2019-06-27T09:48:20.217Z,7.42
2019-06-27T09:50:48.010Z,7.55
2019-06-27T09:53:15.476Z,9.25
2019-06-27T09:55:43.052Z,8.43
2019-06-27T09:58:10.577Z,6.85
2019-06-27T10:00:38.242Z,6.53
2019-06-27T10:03:05.698Z,9.38
2019-06-27T10:05:33.236Z,7.92
2019-06-27T10:08:00.997Z,7.62
2019-06-27T10:10:28.503Z,5.87
2019-06-27T10:12:56.299Z,5.80
2019-06-27T10:15:24.104Z,5.60
2019-06-27T10:17:51.603Z,5.15
2019-06-27T10:20:19.104Z,5.20
2019-06-27T10:22:46.590Z,5.58
2019-06-27T10:25:14.128Z,7.35
2019-06-27T10:27:41.638Z,6.83
2019-06-27T10:30:10.985Z,7.17
2019-06-27T10:32:38.462Z,5.83
2019-06-27T10:35:05.958Z,6.12
2019-06-27T10:37:33.750Z,5.60
2019-06-27T10:40:01.332Z,5.55
2019-06-27T10:42:28.804Z,7.45
2019-06-27T10:44:56.982Z,7.58
2019-06-27T10:47:24.482Z,5.42
2019-06-27T10:49:52.010Z,6.03
2019-06-27T10:52:19.524Z,4.92
2019-06-27T10:54:46.996Z,5.33
2019-06-27T10:57:14.595Z,6.20
2019-06-27T10:59:42.598Z,5.80
2019-06-27T11:02:09.971Z,4.83
2019-06-27T11:04:37.455Z,6.03
2019-06-27T11:07:04.887Z,5.80
2019-06-27T11:09:32.379Z,4.65
2019-06-27T11:12:00.213Z,5.10
2019-06-27T11:14:28.009Z,6.37
2019-06-27T11:16:55.560Z,4.80
2019-06-27T11:19:23.192Z,5.65
2019-06-27T11:21:50.725Z,4.90
2019-06-27T11:24:18.397Z,4.00
2019-06-27T11:26:47.080Z,3.72
2019-06-27T11:29:15.100Z,3.95
2019-06-27T11:31:42.772Z,6.33
2019-06-27T11:34:10.506Z,3.77
2019-06-27T11:36:38.456Z,3.85
2019-06-27T11:39:06.270Z,3.98
2019-06-27T11:41:33.721Z,3.92
2019-06-27T11:44:04.618Z,4.20
2019-06-27T11:46:32.105Z,4.30
2019-06-27T11:48:59.593Z,3.62
2019-06-27T11:51:27.673Z,4.92
2019-06-27T11:53:55.480Z,3.85
2019-06-27T11:56:22.997Z,2.95
2019-06-27T11:58:50.532Z,3.70
2019-06-27T12:01:18.057Z,3.62
2019-06-27T12:03:49.743Z,3.42
2019-06-27T12:06:15.216Z,3.67
2019-06-27T12:08:43.162Z,2.98
2019-06-27T12:11:11.210Z,2.90
2019-06-27T12:13:38.764Z,2.75
2019-06-27T12:16:06.253Z,3.95
2019-06-27T12:18:34.116Z,2.80
2019-06-27T12:21:04.826Z,2.50
2019-06-27T12:23:31.428Z,4.50
2019-06-27T12:25:58.995Z,3.62
2019-06-27T12:28:26.843Z,3.62
2019-06-27T12:30:54.934Z,3.80
2019-06-27T12:33:23.249Z,4.03
2019-06-27T12:35:50.867Z,4.60
2019-06-27T12:38:18.612Z,4.58
2019-06-27T12:40:46.075Z,4.60
2019-06-27T12:43:14.654Z,5.67
2019-06-27T12:45:42.318Z,6.45
2019-06-27T12:48:10.320Z,4.12
2019-06-27T12:50:37.896Z,3.60
2019-06-27T12:53:05.447Z,3.70
2019-06-27T12:55:33.042Z,4.20
2019-06-27T12:58:00.621Z,3.72
2019-06-27T13:00:28.127Z,3.58
2019-06-27T13:02:55.711Z,3.62
2019-06-27T13:05:23.230Z,3.40
2019-06-27T13:07:50.853Z,3.22
2019-06-27T13:10:20.366Z,2.70
2019-06-27T13:12:47.930Z,4.30
2019-06-27T13:15:15.516Z,4.65
2019-06-27T13:17:43.074Z,2.85
2019-06-27T13:20:11.032Z,4.62
2019-06-27T13:22:38.496Z,2.50
2019-06-27T13:25:06.011Z,2.15
2019-06-27T13:27:33.553Z,2.90
2019-06-27T13:30:01.139Z,2.10
2019-06-27T13:32:28.590Z,2.30
2019-06-27T13:34:56.067Z,3.42
2019-06-27T13:37:23.560Z,8.98
2019-06-27T13:39:51.047Z,2.47
2019-06-27T13:42:18.862Z,2.80
2019-06-27T13:44:46.448Z,3.25
2019-06-27T13:47:14.447Z,2.85
2019-06-27T13:49:45.133Z,3.22
2019-06-27T13:52:11.375Z,4.03
2019-06-27T13:54:38.767Z,3.08
2019-06-27T13:57:06.715Z,3.55
2019-06-27T13:59:34.244Z,2.40
2019-06-27T14:02:01.852Z,3.35
2019-06-27T14:04:29.394Z,2.02
2019-06-27T14:06:56.923Z,3.75
2019-06-27T14:09:24.689Z,1.80
2019-06-27T14:11:52.514Z,3.12
2019-06-27T14:14:20.002Z,1.90
2019-06-27T14:16:47.435Z,1.40
2019-06-27T14:19:15.833Z,1.70
2019-06-27T14:21:43.337Z,2.80
2019-06-27T14:24:11.368Z,2.90
2019-06-27T14:26:38.868Z,2.25
2019-06-27T14:29:06.414Z,1.85
2019-06-27T14:31:33.890Z,1.50
2019-06-27T14:34:01.451Z,1.60
2019-06-27T14:36:29.412Z,2.65
2019-06-27T14:38:56.931Z,1.40
2019-06-27T14:41:24.511Z,1.70
2019-06-27T14:43:52.037Z,1.00
2019-06-27T14:46:19.484Z,3.25
2019-06-27T14:48:47.046Z,1.35
2019-06-27T14:51:14.599Z,1.50
2019-06-27T14:53:42.133Z,1.42
2019-06-27T14:56:09.609Z,1.67
2019-06-27T14:58:37.153Z,1.45
2019-06-27T15:01:09.376Z,1.30
2019-06-27T15:03:34.027Z,1.70
2019-06-27T15:06:01.390Z,1.10
2019-06-27T15:08:29.258Z,1.05
2019-06-27T15:10:56.743Z,1.82
2019-06-27T15:13:25.095Z,2.42
2019-06-27T15:15:52.651Z,2.33
2019-06-27T15:18:20.479Z,1.20
2019-06-27T15:20:49.810Z,1.17
2019-06-27T15:23:17.718Z,3.50
2019-06-27T15:25:46.135Z,1.17
2019-06-27T15:28:14.358Z,1.55
2019-06-27T15:30:41.992Z,1.82
2019-06-27T15:33:10.448Z,1.02
2019-06-27T15:35:51.744Z,1.87
2019-06-27T15:38:07.966Z,1.32
2019-06-27T15:40:35.755Z,1.85
2019-06-27T15:43:03.176Z,1.62
2019-06-27T15:45:30.710Z,2.20
2019-06-27T15:47:58.599Z,1.45
2019-06-27T15:50:26.453Z,2.35
2019-06-27T15:52:53.836Z,1.60
2019-06-27T15:55:21.273Z,1.77
2019-06-27T15:57:48.765Z,1.10
2019-06-27T16:00:16.574Z,1.45
2019-06-27T16:02:44.793Z,1.17
2019-06-27T16:05:12.945Z,2.02
2019-06-27T16:07:40.544Z,2.98
2019-06-27T16:10:08.314Z,1.40
2019-06-27T16:12:36.121Z,2.67
2019-06-27T16:15:04.416Z,2.92
2019-06-27T16:17:32.455Z,1.60
2019-06-27T16:19:59.950Z,1.40
2019-06-27T16:22:27.393Z,1.75
2019-06-27T16:24:55.233Z,2.05
2019-06-27T16:27:22.648Z,1.85
2019-06-27T16:29:50.117Z,2.12
2019-06-27T16:32:17.722Z,6.30
2019-06-27T16:34:45.227Z,6.20
2019-06-27T16:37:12.717Z,1.50
2019-06-27T16:39:40.196Z,2.77
2019-06-27T16:42:07.595Z,2.47
2019-06-27T16:44:35.113Z,1.55
2019-06-27T16:47:03.022Z,2.20
2019-06-27T16:49:30.533Z,1.75
2019-06-27T16:52:03.357Z,1.40
2019-06-27T16:54:34.746Z,3.05
2019-06-27T16:57:02.275Z,3.33
2019-06-27T16:59:30.068Z,2.00
2019-06-27T17:01:57.478Z,1.40
2019-06-27T17:04:25.470Z,1.30
2019-06-27T17:06:53.330Z,1.30
2019-06-27T17:09:20.873Z,1.55
2019-06-27T17:11:48.273Z,1.85
2019-06-27T17:14:15.921Z,2.20
2019-06-27T17:16:43.880Z,3.40
2019-06-27T17:19:11.675Z,5.65
2019-06-27T17:21:39.150Z,1.47
2019-06-27T17:24:06.599Z,2.35
2019-06-27T17:26:34.082Z,1.80
2019-06-27T17:29:01.874Z,2.35
2019-06-27T17:31:29.364Z,1.82
2019-06-27T17:33:57.883Z,2.05
2019-06-27T17:36:25.388Z,1.40
2019-06-27T17:38:52.852Z,1.70
2019-06-27T17:41:20.710Z,2.10
2019-06-27T17:43:48.091Z,1.70
2019-06-27T17:46:15.759Z,2.72
2019-06-27T17:48:44.271Z,3.30
2019-06-27T17:51:11.716Z,2.12
2019-06-27T17:53:39.164Z,1.72
2019-06-27T17:56:06.708Z,1.50
2019-06-27T17:58:34.444Z,3.05
2019-06-27T18:01:01.987Z,1.60
2019-06-27T18:03:29.428Z,2.40
2019-06-27T18:05:57.119Z,2.37
2019-06-27T18:08:24.949Z,4.95
2019-06-27T18:11:01.192Z,2.25
2019-06-27T18:13:28.704Z,1.50
2019-06-27T18:15:56.214Z,2.02
2019-06-27T18:18:24.164Z,3.17
2019-06-27T18:20:51.560Z,1.60
2019-06-27T18:23:18.983Z,1.47
2019-06-27T18:25:46.669Z,1.47
2019-06-27T18:28:14.184Z,1.50
2019-06-27T18:30:41.656Z,2.17
2019-06-27T18:33:09.081Z,2.25
2019-06-27T18:35:37.128Z,1.72
2019-06-27T18:38:04.828Z,3.10
2019-06-27T18:40:32.272Z,2.30
2019-06-27T18:42:59.799Z,2.35
2019-06-27T18:45:27.842Z,3.10
2019-06-27T18:47:55.510Z,1.70
2019-06-27T18:50:23.168Z,3.27
2019-06-27T18:52:50.692Z,2.02
2019-06-27T18:55:18.215Z,2.00
2019-06-27T18:57:45.853Z,2.95
2019-06-27T19:00:13.458Z,2.15
2019-06-27T19:02:40.997Z,1.60
2019-06-27T19:05:10.422Z,1.82
2019-06-27T19:07:45.640Z,2.17
2019-06-27T19:10:08.850Z,2.35
2019-06-27T19:12:36.679Z,1.70
2019-06-27T19:15:04.219Z,1.85
2019-06-27T19:17:31.717Z,4.50
2019-06-27T19:20:03.485Z,3.17
2019-06-27T19:22:57.954Z,3.00
2019-06-27T19:25:29.566Z,2.60
2019-06-27T19:27:57.362Z,3.30
2019-06-27T19:30:27.998Z,3.87
2019-06-27T19:32:55.417Z,3.02
2019-06-27T19:35:23.141Z,2.25
2019-06-27T19:38:02.150Z,3.65
2019-06-27T19:40:24.145Z,4.25
2019-06-27T19:42:51.583Z,2.95
2019-06-27T19:45:19.132Z,2.45
2019-06-27T19:47:46.600Z,5.17
2019-06-27T19:50:14.321Z,2.90
2019-06-27T19:52:42.098Z,2.50
2019-06-27T19:55:09.771Z,4.33
2019-06-27T19:57:37.154Z,3.15
2019-06-27T20:00:05.951Z,4.42
2019-06-27T20:02:33.717Z,3.80
2019-06-27T20:05:01.658Z,3.30
2019-06-27T20:07:29.505Z,5.75
2019-06-27T20:09:57.351Z,2.92
2019-06-27T20:12:24.747Z,3.58
2019-06-27T20:14:52.248Z,6.15
2019-06-27T20:17:19.633Z,4.47
2019-06-27T20:19:47.408Z,3.05
2019-06-27T20:22:15.175Z,3.05
2019-06-27T20:24:43.058Z,4.67
2019-06-27T20:27:10.723Z,2.27
2019-06-27T20:29:38.195Z,7.25
2019-06-27T20:32:05.593Z,3.17
2019-06-27T20:34:33.181Z,3.47
2019-06-27T20:37:00.667Z,3.80
2019-06-27T20:39:28.204Z,4.78
2019-06-27T20:41:55.762Z,4.30
2019-06-27T20:44:24.967Z,4.50
2019-06-27T20:46:52.371Z,2.58
2019-06-27T20:49:19.894Z,2.98
2019-06-27T20:51:47.357Z,4.35
2019-06-27T20:54:15.266Z,3.83
2019-06-27T20:56:42.749Z,3.17
2019-06-27T20:59:10.355Z,3.42
2019-06-27T21:01:38.147Z,3.83
2019-06-27T21:04:05.643Z,4.78
2019-06-27T21:06:33.133Z,3.42
2019-06-27T21:09:00.649Z,4.28
2019-06-27T21:11:28.211Z,5.17
2019-06-27T21:13:55.735Z,4.37
2019-06-27T21:16:23.480Z,5.92
2019-06-27T21:18:51.447Z,3.55
2019-06-27T21:21:19.461Z,3.12
2019-06-27T21:23:47.394Z,4.30
2019-06-27T21:26:14.883Z,4.33
2019-06-27T21:28:42.697Z,2.62
2019-06-27T21:31:10.214Z,3.55
2019-06-27T21:33:38.153Z,3.58
2019-06-27T21:36:05.668Z,3.75
2019-06-27T21:38:33.211Z,5.78
2019-06-27T21:41:00.705Z,5.10
2019-06-27T21:43:28.095Z,3.80
2019-06-27T21:45:55.571Z,5.95
2019-06-27T21:48:23.022Z,2.33
2019-06-27T21:50:51.497Z,2.80
2019-06-27T21:53:18.983Z,3.98
2019-06-27T21:55:46.340Z,5.00
2019-06-27T21:58:13.740Z,5.75
2019-06-27T22:00:42.579Z,2.70
2019-06-27T22:03:10.003Z,3.00
2019-06-27T22:05:37.517Z,2.77
2019-06-27T22:08:05.162Z,4.15
2019-06-27T22:10:32.971Z,3.90
2019-06-27T22:13:00.737Z,4.30
2019-06-27T22:15:28.669Z,3.45
2019-06-27T22:17:56.170Z,2.40
2019-06-27T22:20:23.948Z,6.65
2019-06-27T22:22:51.452Z,2.55
2019-06-27T22:25:18.851Z,5.50
2019-06-27T22:27:46.369Z,3.02
2019-06-27T22:30:14.025Z,2.52
2019-06-27T22:32:41.812Z,3.52
2019-06-27T22:35:09.708Z,3.67
2019-06-27T22:37:36.934Z,4.15
2019-06-27T22:40:23.255Z,5.58
2019-06-27T22:43:09.217Z,3.27
2019-06-27T22:45:54.997Z,2.45
2019-06-27T22:48:22.332Z,2.90
2019-06-27T22:51:00.836Z,5.92
2019-06-27T22:53:30.761Z,3.95
2019-06-27T22:55:58.074Z,2.65
2019-06-27T22:58:25.574Z,4.08
2019-06-27T23:00:53.280Z,5.83
2019-06-27T23:03:21.133Z,5.80
2019-06-27T23:05:48.852Z,5.78
2019-06-27T23:08:16.274Z,3.00
2019-06-27T23:10:44.096Z,3.58
2019-06-27T23:13:11.456Z,3.52
2019-06-27T23:15:38.946Z,3.85
2019-06-27T23:18:06.381Z,6.70
2019-06-27T23:20:33.759Z,10.45
2019-06-27T23:23:01.120Z,10.60
2019-06-27T23:25:28.663Z,8.30
2019-06-27T23:27:56.194Z,3.30
2019-06-27T23:30:23.929Z,3.85
2019-06-27T23:32:51.693Z,2.75
2019-06-27T23:35:19.123Z,3.50
2019-06-27T23:37:46.632Z,4.50
2019-06-27T23:40:15.289Z,5.85
2019-06-27T23:42:43.167Z,3.98
2019-06-27T23:45:10.669Z,3.15
2019-06-27T23:47:38.079Z,4.28
2019-06-27T23:50:06.225Z,4.17
2019-06-27T23:52:34.156Z,2.50
2019-06-27T23:55:01.684Z,3.35
2019-06-27T23:57:29.415Z,3.47
2019-06-27T23:59:56.929Z,4.72
